Time;durP1;ratioP1;P1;durP2;ratioP2;P2;SDS_P1;SDS_P2;PMS_P1;PMS_P2;Temp;Humidity;BMP_temperature;BMP_pressure;BME280_temperature;BME280_humidity;BME280_pressure;Samples;Min_cycle;Max_cycle;Signal;HPM_P1;HPM_P2
2023/03/17 00:00:19;;;;;;;4.03;1.27;;;;;;;6.25;81.27;100814.63;6253816;28;20050;-73
2023/03/17 00:03:24;;;;;;;4.18;1.35;;;;;;;6.23;81.93;100815.63;6261792;28;20050;-73
2023/03/17 00:06:29;;;;;;;2.88;1.35;;;;;;;6.20;82.23;100821.78;6253220;28;20122;-73
2023/03/17 00:09:30;;;;;;;1.92;0.77;;;;;;;6.17;82.67;100826.22;6253574;28;20045;-73
2023/03/17 00:12:32;;;;;;;2.78;1.23;;;;;;;6.12;82.47;100818.56;6253639;28;20057;-73
2023/03/17 00:15:35;;;;;;;1.92;1.23;;;;;;;6.08;82.62;100811.75;6261508;28;20056;-73
2023/03/17 00:18:37;;;;;;;2.47;1.10;;;;;;;6.01;82.60;100808.50;6253375;28;20065;-73
2023/03/17 00:21:39;;;;;;;4.68;1.10;;;;;;;5.96;82.42;100817.38;6253375;28;20060;-74
2023/03/17 00:24:40;;;;;;;3.00;1.27;;;;;;;5.89;82.57;100803.66;6253162;28;20143;-73
2023/03/17 00:27:41;;;;;;;1.92;0.85;;;;;;;5.90;82.79;100805.34;6252982;28;20345;-73
2023/03/17 00:30:45;;;;;;;1.73;1.00;;;;;;;5.89;83.17;100803.66;6253123;28;20453;-73
2023/03/17 00:33:48;;;;;;;1.20;0.98;;;;;;;5.84;83.83;100808.16;6253379;28;20052;-73
2023/03/17 00:36:50;;;;;;;6.95;1.00;;;;;;;5.79;84.50;100816.13;6252941;28;20049;-73
2023/03/17 00:39:51;;;;;;;2.22;1.23;;;;;;;5.80;84.13;100814.38;6252892;28;20045;-73
2023/03/17 00:42:53;;;;;;;1.42;0.98;;;;;;;5.75;84.61;100811.91;6252643;28;20053;-73
2023/03/17 00:45:56;;;;;;;1.77;1.00;;;;;;;5.74;85.42;100812.84;6252440;28;20334;-73
2023/03/17 00:48:58;;;;;;;2.80;1.23;;;;;;;5.71;86.04;100814.69;6252862;28;20048;-74
2023/03/17 00:52:00;;;;;;;1.17;0.95;;;;;;;5.67;85.88;100800.03;6252132;28;20046;-73
2023/03/17 00:55:02;;;;;;;2.70;1.13;;;;;;;5.67;86.45;100800.03;6252663;28;20046;-73
2023/03/17 00:58:12;;;;;;;1.67;0.93;;;;;;;5.64;86.93;100801.00;6252911;28;20037;-73
2023/03/17 01:01:15;;;;;;;2.50;1.02;;;;;;;5.65;87.30;100800.09;6258344;28;20335;-73
2023/03/17 01:04:16;;;;;;;3.47;1.27;;;;;;;5.69;86.19;100791.28;6251312;28;20052;-73
2023/03/17 01:07:18;;;;;;;1.92;0.98;;;;;;;5.70;87.16;100794.72;6251947;28;20461;-73
2023/03/17 01:10:22;;;;;;;1.90;1.10;;;;;;;5.68;86.26;100780.88;6252092;28;20049;-73
2023/03/17 01:13:24;;;;;;;1.63;0.70;;;;;;;5.67;86.60;100785.25;6251897;28;20053;-73
2023/03/17 01:16:27;;;;;;;2.20;1.35;;;;;;;5.70;86.92;100784.31;6251923;28;20042;-73
2023/03/17 01:19:29;;;;;;;2.47;1.00;;;;;;;5.73;86.83;100785.06;6252083;28;20499;-73
2023/03/17 01:22:30;;;;;;;3.15;1.38;;;;;;;5.76;86.37;100774.50;6275533;28;20056;-73
2023/03/17 01:25:32;;;;;;;1.85;1.10;;;;;;;5.76;85.27;100771.91;6251722;28;20057;-73
2023/03/17 01:28:34;;;;;;;2.05;1.02;;;;;;;5.78;85.02;100764.06;6251780;28;20434;-73
2023/03/17 01:31:37;;;;;;;6.47;1.10;;;;;;;5.81;85.60;100758.72;6251692;28;20050;-73
2023/03/17 01:34:39;;;;;;;1.52;0.95;;;;;;;5.84;84.98;100753.41;6251858;28;20050;-73
2023/03/17 01:37:41;;;;;;;3.15;1.15;;;;;;;5.89;84.60;100754.09;6251305;28;20060;-73
2023/03/17 01:40:45;;;;;;;2.42;1.25;;;;;;;5.92;84.64;100764.47;6251437;28;20060;-73
2023/03/17 01:43:47;;;;;;;2.92;1.40;;;;;;;5.95;85.18;100766.97;6251456;28;20054;-73
2023/03/17 01:46:49;;;;;;;2.22;1.20;;;;;;;5.99;84.50;100781.59;6251074;28;20049;-73
2023/03/17 01:49:51;;;;;;;3.15;1.30;;;;;;;6.00;84.38;100782.47;6252572;28;20049;-73
2023/03/17 01:52:53;;;;;;;8.95;1.25;;;;;;;6.01;84.43;100786.78;6251146;28;20128;-73
2023/03/17 01:55:56;;;;;;;1.60;1.20;;;;;;;6.01;84.35;100786.78;6254655;28;20052;-73
2023/03/17 01:59:02;;;;;;;2.85;1.13;;;;;;;5.98;84.54;100774.69;6254704;28;20066;-73
2023/03/17 02:02:08;;;;;;;1.92;1.20;;;;;;;5.98;85.72;100779.06;6251271;28;20045;-73
2023/03/17 02:05:12;;;;;;;5.20;1.48;;;;;;;5.96;86.26;100773.91;6250891;28;20142;-73
2023/03/17 02:08:15;;;;;;;3.28;1.30;;;;;;;5.98;86.44;100776.44;6250416;28;20346;-73
2023/03/17 02:11:16;;;;;;;2.25;1.23;;;;;;;5.96;86.74;100776.50;6259100;28;20050;-73
2023/03/17 02:14:19;;;;;;;3.45;1.30;;;;;;;5.94;87.25;100772.22;6259902;28;20040;-73
2023/03/17 02:17:24;;;;;;;3.72;1.70;;;;;;;5.90;87.49;100761.00;6250689;28;20048;-73
2023/03/17 02:21:14;;;;;;;4.35;1.77;;;;;;;5.88;87.30;100756.78;6250727;28;20057;-73
2023/03/17 02:24:22;;;;;;;1.63;1.52;;;;;;;5.88;87.30;100755.00;6267417;28;20045;-73
2023/03/17 02:27:29;;;;;;;1.42;0.98;;;;;;;5.85;86.81;100755.94;6250250;28;20041;-73
2023/03/17 02:30:32;;;;;;;2.20;1.10;;;;;;;5.89;86.18;100761.06;6267218;28;20182;-73
2023/03/17 02:33:34;;;;;;;5.25;1.73;;;;;;;5.89;86.37;100769.75;6274973;28;20058;-73
2023/03/17 02:36:36;;;;;;;3.03;1.65;;;;;;;5.87;86.75;100776.78;6274768;28;20049;-74
2023/03/17 02:39:38;;;;;;;3.20;1.50;;;;;;;5.86;87.04;100780.31;6275093;28;20131;-73
2023/03/17 02:42:40;;;;;;;1.73;1.13;;;;;;;5.88;87.10;100764.59;6255496;28;20057;-73
2023/03/17 02:45:42;;;;;;;3.65;1.45;;;;;;;5.84;88.06;100766.44;6249878;28;20466;-73
2023/03/17 02:48:43;;;;;;;4.20;1.48;;;;;;;5.79;87.26;100758.78;6250114;28;20369;-73
2023/03/17 02:51:45;;;;;;;3.63;1.80;;;;;;;5.71;86.74;100742.53;6249866;28;20353;-73
2023/03/17 02:54:48;;;;;;;4.80;1.60;;;;;;;5.66;87.30;100739.22;6262459;28;20060;-73
2023/03/17 02:57:49;;;;;;;12.05;1.70;;;;;;;5.66;87.26;100736.63;6250064;28;20065;-73
2023/03/17 03:00:50;;;;;;;2.53;1.30;;;;;;;5.64;88.07;100738.44;6250230;28;20052;-73
2023/03/17 03:03:52;;;;;;;2.75;1.35;;;;;;;5.66;88.20;100735.78;6250096;28;20056;-73
2023/03/17 03:06:54;;;;;;;5.00;1.33;;;;;;;5.63;88.83;100741.06;6249532;28;20046;-73
2023/03/17 03:09:56;;;;;;;2.72;1.50;;;;;;;5.63;89.33;100746.28;6250328;28;20055;-74
2023/03/17 03:12:58;;;;;;;3.50;1.52;;;;;;;5.61;89.57;100743.75;6249808;28;20048;-73
2023/03/17 03:15:59;;;;;;;1.63;0.90;;;;;;;5.60;90.19;100742.88;6249586;28;20049;-73
2023/03/17 03:19:01;;;;;;;1.52;1.13;;;;;;;5.63;89.83;100734.09;6250117;28;20477;-73
2023/03/17 03:22:02;;;;;;;3.78;1.58;;;;;;;5.57;89.47;100729.94;6249796;28;20053;-73
2023/03/17 03:25:06;;;;;;;2.20;1.60;;;;;;;5.53;89.57;100730.94;6249671;28;20041;-73
2023/03/17 03:28:14;;;;;;;2.90;1.45;;;;;;;5.52;89.10;100742.28;6274785;28;20049;-73
2023/03/17 03:31:16;;;;;;;5.68;1.48;;;;;;;5.51;88.84;100739.75;6279312;28;20049;-73
2023/03/17 03:34:17;;;;;;;1.92;1.58;;;;;;;5.48;89.19;100747.66;6254590;28;20354;-73
2023/03/17 03:37:19;;;;;;;4.45;1.92;;;;;;;5.43;89.58;100737.38;6261271;28;20037;-73
2023/03/17 03:40:22;;;;;;;4.20;1.70;;;;;;;5.41;89.35;100720.09;6255513;28;20071;-73
2023/03/17 03:43:23;;;;;;;3.65;1.77;;;;;;;5.34;89.28;100704.63;6254316;28;20064;-73
2023/03/17 03:46:25;;;;;;;4.13;1.75;;;;;;;5.32;89.28;100698.63;6253791;28;20085;-74
2023/03/17 03:49:26;;;;;;;2.72;1.50;;;;;;;5.37;89.14;100684.63;6254101;28;20467;-73
2023/03/17 03:52:28;;;;;;;3.00;1.83;;;;;;;5.37;88.72;100684.63;6254197;28;20056;-74
2023/03/17 03:55:31;;;;;;;4.28;1.70;;;;;;;5.41;88.70;100681.84;6262350;28;20053;-73
2023/03/17 03:58:32;;;;;;;5.40;2.20;;;;;;;5.46;88.56;100694.72;6253990;28;20049;-73
2023/03/17 04:01:33;;;;;;;2.67;1.65;;;;;;;5.44;88.06;100704.34;6253826;28;20049;-73
2023/03/17 04:04:35;;;;;;;4.90;1.85;;;;;;;5.44;88.19;100710.41;6253458;28;20448;-73
2023/03/17 04:07:37;;;;;;;6.22;1.67;;;;;;;5.44;88.86;100694.75;6253514;28;20093;-73
2023/03/17 04:10:40;;;;;;;2.65;1.50;;;;;;;5.35;89.12;100685.50;6254217;28;20045;-73
2023/03/17 04:13:41;;;;;;;5.63;1.98;;;;;;;5.30;89.26;100684.78;6253522;28;20045;-73
2023/03/17 04:16:42;;;;;;;4.75;2.10;;;;;;;5.23;89.81;100677.25;6253298;28;20053;-73
2023/03/17 04:19:44;;;;;;;3.30;1.70;;;;;;;5.24;90.07;100678.94;6253408;28;20045;-73
2023/03/17 04:22:45;;;;;;;5.75;1.95;;;;;;;5.23;90.43;100675.50;6253384;28;20057;-73
2023/03/17 04:25:50;;;;;;;4.03;2.13;;;;;;;5.23;89.93;100677.25;6252561;28;20049;-73
2023/03/17 04:28:51;;;;;;;2.78;1.63;;;;;;;5.19;90.98;100670.44;6258609;28;20060;-73
2023/03/17 04:31:52;;;;;;;6.28;1.92;;;;;;;5.17;91.32;100677.44;6247084;28;20084;-73
2023/03/17 04:34:54;;;;;;;6.30;1.83;;;;;;;5.20;91.24;100682.53;6251573;28;20053;-74
2023/03/17 04:37:56;;;;;;;5.13;2.05;;;;;;;5.17;91.41;100680.03;6267282;28;20040;-74
2023/03/17 04:40:59;;;;;;;4.78;1.80;;;;;;;5.23;91.24;100675.50;6258680;28;20128;-74
2023/03/17 04:44:00;;;;;;;3.83;1.80;;;;;;;5.20;90.26;100680.78;6241481;28;20072;-73
2023/03/17 04:47:01;;;;;;;4.28;2.40;;;;;;;5.19;90.99;100681.69;6253831;28;20037;-73
2023/03/17 04:50:04;;;;;;;3.83;2.13;;;;;;;5.17;91.02;100672.22;6234538;28;20037;-73
2023/03/17 04:53:05;;;;;;;3.97;2.00;;;;;;;5.15;90.78;100674.88;6233557;28;20138;-72
2023/03/17 04:56:08;;;;;;;5.28;1.80;;;;;;;5.16;91.34;100665.31;6239408;28;20528;-72
2023/03/17 04:59:10;;;;;;;3.97;1.70;;;;;;;5.12;91.66;100669.75;6232048;28;20052;-72
2023/03/17 05:02:12;;;;;;;3.80;1.85;;;;;;;5.08;91.62;100666.41;6237466;28;20361;-72
2023/03/17 05:05:13;;;;;;;2.13;1.52;;;;;;;5.09;91.09;100670.72;6233484;28;20134;-72
2023/03/17 05:08:15;;;;;;;4.10;2.03;;;;;;;5.12;91.26;100681.94;6236833;28;20173;-72
2023/03/17 05:11:19;;;;;;;3.60;1.88;;;;;;;5.08;90.96;100679.41;6235235;28;20048;-72
2023/03/17 05:14:21;;;;;;;5.32;2.30;;;;;;;5.03;91.61;100677.88;6233794;28;20048;-72
2023/03/17 05:17:22;;;;;;;3.47;1.85;;;;;;;5.01;91.73;100671.88;6234445;28;20042;-72
2023/03/17 05:20:24;;;;;;;4.05;2.20;;;;;;;5.02;91.07;100671.81;6233363;28;20044;-72
2023/03/17 05:23:25;;;;;;;2.88;1.88;;;;;;;5.06;91.03;100676.03;6231293;28;20052;-72
2023/03/17 05:26:28;;;;;;;4.25;2.10;;;;;;;5.06;91.80;100672.56;6239815;28;20146;-72
2023/03/17 05:29:29;;;;;;;4.22;1.90;;;;;;;5.11;91.49;100659.41;6252037;28;20442;-72
2023/03/17 05:32:31;;;;;;;6.53;2.53;;;;;;;5.15;90.50;100650.59;6252174;28;20132;-72
2023/03/17 05:35:33;;;;;;;2.90;1.80;;;;;;;5.12;90.38;100643.72;6253871;28;20080;-72
2023/03/17 05:38:34;;;;;;;3.40;1.85;;;;;;;5.13;89.74;100635.00;6252255;28;20053;-72
2023/03/17 05:41:37;;;;;;;5.45;2.15;;;;;;;5.13;90.11;100636.75;6266995;28;20053;-72
2023/03/17 05:44:38;;;;;;;4.10;1.67;;;;;;;5.12;89.96;100633.28;6251762;28;20052;-71
2023/03/17 05:47:40;;;;;;;3.38;2.17;;;;;;;5.12;89.93;100632.44;6251196;28;20049;-71
2023/03/17 05:50:42;;;;;;;5.68;2.22;;;;;;;5.13;90.55;100649.78;6259454;28;20053;-71
2023/03/17 05:53:44;;;;;;;3.55;1.85;;;;;;;5.14;90.43;100638.47;6251446;28;20349;-72
2023/03/17 05:56:47;;;;;;;1.92;1.63;;;;;;;5.12;90.96;100640.25;6250754;28;20354;-72
2023/03/17 05:59:49;;;;;;;3.67;2.10;;;;;;;5.12;90.84;100643.72;6251246;28;20049;-73
2023/03/17 06:02:50;;;;;;;4.22;2.20;;;;;;;5.12;90.92;100638.50;6252434;28;20045;-72
2023/03/17 06:05:52;;;;;;;5.07;1.90;;;;;;;5.14;91.53;100641.06;6258593;28;20057;-72
2023/03/17 06:08:54;;;;;;;5.05;2.03;;;;;;;5.12;90.83;100641.09;6260126;28;20088;-72
2023/03/17 06:11:57;;;;;;;4.40;1.95;;;;;;;5.17;91.50;100651.38;6261271;28;20046;-71
2023/03/17 06:14:59;;;;;;;4.78;1.92;;;;;;;5.20;91.72;100646.94;6257044;28;20050;-71
2023/03/17 06:18:00;;;;;;;5.47;2.22;;;;;;;5.20;91.26;100639.13;6260890;28;20038;-72
2023/03/17 06:21:01;;;;;;;6.63;1.85;;;;;;;5.23;91.44;100636.41;6259934;28;20052;-72
2023/03/17 06:24:03;;;;;;;3.00;2.08;;;;;;;5.27;90.57;100640.63;6260731;28;20048;-72
2023/03/17 06:27:06;;;;;;;5.97;2.45;;;;;;;5.30;90.74;100645.72;6261062;28;20045;-72
2023/03/17 06:30:10;;;;;;;3.92;1.98;;;;;;;5.36;90.71;100644.69;6260070;28;20048;-72
2023/03/17 06:33:11;;;;;;;3.28;1.80;;;;;;;5.35;90.56;100641.19;6259431;28;20064;-73
2023/03/17 06:36:13;;;;;;;5.40;2.15;;;;;;;5.36;92.51;100642.06;6259652;28;20048;-73
2023/03/17 06:39:15;;;;;;;6.00;2.15;;;;;;;5.38;92.00;100642.84;6261220;28;20041;-74
2023/03/17 06:42:19;;;;;;;3.65;1.80;;;;;;;5.39;92.09;100636.75;6257262;28;20057;-72
2023/03/17 06:45:21;;;;;;;3.30;1.77;;;;;;;5.43;91.95;100640.09;6257798;28;20658;-72
2023/03/17 06:48:23;;;;;;;7.35;2.33;;;;;;;5.45;91.78;100652.19;6256892;28;20488;-72
2023/03/17 06:51:24;;;;;;;2.67;1.40;;;;;;;5.48;92.30;100653.81;6257658;28;20099;-72
2023/03/17 06:54:26;;;;;;;3.95;2.22;;;;;;;5.55;91.98;100655.34;6260752;28;20044;-74
2023/03/17 06:57:29;;;;;;;4.47;2.15;;;;;;;5.54;92.95;100638.84;6259205;28;20052;-74
2023/03/17 07:00:30;;;;;;;4.22;2.00;;;;;;;5.58;91.97;100635.19;6258452;28;20053;-74
2023/03/17 07:03:32;;;;;;;4.28;1.60;;;;;;;5.65;91.72;100629.78;6259404;28;20048;-74
2023/03/17 07:06:33;;;;;;;6.38;2.05;;;;;;;5.72;91.41;100629.53;6269628;28;20052;-74
2023/03/17 07:09:35;;;;;;;4.13;1.77;;;;;;;5.82;91.39;100632.66;6269866;28;20065;-74
2023/03/17 07:12:38;;;;;;;4.25;2.20;;;;;;;5.89;91.08;100644.56;6264613;28;20045;-74
2023/03/17 07:15:39;;;;;;;4.15;2.20;;;;;;;5.96;91.09;100633.06;6265375;28;20060;-74
2023/03/17 07:18:41;;;;;;;4.22;2.17;;;;;;;6.06;89.66;100637.03;6263851;28;20346;-74
2023/03/17 07:21:42;;;;;;;3.80;1.80;;;;;;;6.18;88.95;100640.94;6267632;28;20048;-74
2023/03/17 07:24:45;;;;;;;7.03;2.42;;;;;;;6.29;86.07;100651.81;6258581;28;20054;-76
2023/03/17 07:27:48;;;;;;;3.60;1.90;;;;;;;6.42;85.88;100652.22;6258914;28;20042;-75
2023/03/17 07:30:50;;;;;;;4.72;2.22;;;;;;;6.53;84.34;100644.81;6256637;28;20057;-76
2023/03/17 07:33:52;;;;;;;3.63;1.90;;;;;;;6.55;85.13;100644.78;6263412;28;20049;-76
2023/03/17 07:36:53;;;;;;;3.17;1.63;;;;;;;6.63;84.99;100644.47;6265610;28;20052;-76
2023/03/17 07:39:55;;;;;;;4.43;2.03;;;;;;;6.64;85.89;100641.81;6260961;28;20048;-76
2023/03/17 07:42:58;;;;;;;3.38;1.48;;;;;;;6.69;85.59;100647.72;6261921;28;20352;-76
2023/03/17 07:46:00;;;;;;;6.53;1.50;;;;;;;6.84;82.94;100652.31;6262453;28;20050;-75
2023/03/17 07:49:01;;;;;;;2.85;1.35;;;;;;;6.90;83.17;100651.22;6254445;28;20119;-76
2023/03/17 07:52:03;;;;;;;3.70;2.15;;;;;;;6.99;82.83;100658.69;6254136;28;20057;-76
2023/03/17 07:55:07;;;;;;;5.03;1.73;;;;;;;7.19;79.45;100657.91;6260559;28;20045;-76
2023/03/17 07:58:09;;;;;;;2.65;1.38;;;;;;;7.23;80.08;100654.25;6253901;28;20322;-76
2023/03/17 08:01:11;;;;;;;3.50;1.25;;;;;;;7.22;81.66;100649.06;6260180;28;20464;-76
2023/03/17 08:04:13;;;;;;;2.70;1.98;;;;;;;7.26;82.22;100640.19;6263514;28;20603;-75
2023/03/17 08:07:14;;;;;;;4.35;1.75;;;;;;;7.33;82.04;100636.44;6254041;28;20045;-76
2023/03/17 08:10:17;;;;;;;4.30;1.60;;;;;;;7.44;81.31;100642.03;6255218;28;20056;-76
2023/03/17 08:13:19;;;;;;;3.42;1.73;;;;;;;7.45;81.60;100645.50;6255932;28;20041;-76
2023/03/17 08:16:21;;;;;;;3.97;1.52;;;;;;;7.45;81.59;100650.72;6254824;28;20045;-76
2023/03/17 08:19:23;;;;;;;4.60;1.30;;;;;;;7.49;82.25;100647.94;6256134;28;20131;-76
2023/03/17 08:22:25;;;;;;;2.78;1.42;;;;;;;7.62;82.16;100646.50;6253621;28;20456;-76
2023/03/17 08:25:27;;;;;;;2.92;1.73;;;;;;;7.76;81.38;100645.91;6253135;28;20049;-75
2023/03/17 08:28:31;;;;;;;5.65;2.15;;;;;;;7.92;79.10;100634.78;6253581;28;20042;-75
2023/03/17 08:31:33;;;;;;;2.40;1.50;;;;;;;7.98;79.95;100624.88;6259818;28;20049;-76
2023/03/17 08:34:35;;;;;;;5.25;1.90;;;;;;;8.05;79.88;100628.94;6253293;28;20128;-76
2023/03/17 08:37:36;;;;;;;1.95;1.17;;;;;;;8.09;80.36;100630.50;6252873;28;20041;-76
2023/03/17 08:40:39;;;;;;;3.47;2.08;;;;;;;8.13;81.30;100629.44;6258277;28;20053;-76
2023/03/17 08:43:43;;;;;;;2.80;1.55;;;;;;;8.25;81.02;100624.56;6252795;28;20349;-75
2023/03/17 08:46:44;;;;;;;6.85;2.13;;;;;;;8.40;77.63;100626.50;6252752;28;20053;-76
2023/03/17 08:49:45;;;;;;;2.35;1.40;;;;;;;8.57;75.17;100620.47;6252783;28;20042;-76
2023/03/17 08:52:47;;;;;;;3.22;1.98;;;;;;;8.55;76.44;100622.34;6258361;28;20060;-75
2023/03/17 08:55:48;;;;;;;5.95;1.52;;;;;;;8.62;75.65;100616.72;6258265;28;20059;-75
2023/03/17 08:58:51;;;;;;;3.95;1.65;;;;;;;8.62;76.15;100619.34;6258191;28;20046;-75
2023/03/17 09:01:53;;;;;;;3.10;1.65;;;;;;;8.70;75.81;100615.50;6255601;28;20569;-76
2023/03/17 09:04:54;;;;;;;2.80;1.75;;;;;;;8.78;74.92;100616.84;6252325;28;20056;-75
2023/03/17 09:07:56;;;;;;;3.50;1.63;;;;;;;8.92;74.59;100610.09;6254623;28;20041;-75
2023/03/17 09:10:57;;;;;;;2.55;1.58;;;;;;;8.98;74.75;100599.31;6252297;28;20133;-75
2023/03/17 09:14:00;;;;;;;4.63;2.13;;;;;;;9.03;74.28;100603.38;6255861;28;20041;-76
2023/03/17 09:17:01;;;;;;;5.70;1.67;;;;;;;9.08;74.02;100604.03;6251484;28;20041;-75
2023/03/17 09:20:05;;;;;;;4.47;1.77;;;;;;;9.17;74.69;100612.34;6254507;28;20050;-76
2023/03/17 09:23:07;;;;;;;2.70;1.55;;;;;;;9.22;75.27;100607.72;6252531;28;20079;-76
2023/03/17 09:26:09;;;;;;;1.83;1.25;;;;;;;9.30;75.40;100606.41;6255273;28;20045;-77
2023/03/17 09:29:14;;;;;;;4.68;2.10;;;;;;;9.32;73.77;100608.97;6254598;28;20065;-76
2023/03/17 09:32:16;;;;;;;3.33;1.38;;;;;;;9.31;74.55;100615.13;6251912;28;20107;-76
2023/03/17 09:35:18;;;;;;;5.95;1.67;;;;;;;9.34;75.76;100604.50;6251754;28;20045;-75
2023/03/17 09:38:20;;;;;;;3.85;1.83;;;;;;;9.44;75.48;100616.19;6251638;28;20060;-76
2023/03/17 09:41:47;;;;;;;3.33;1.60;;;;;;;9.57;73.81;100619.91;6251722;28;20049;-75
2023/03/17 09:45:04;;;;;;;3.67;1.80;;;;;;;9.68;72.97;100618.53;6256408;28;20057;-76
2023/03/17 09:48:40;;;;;;;2.95;1.63;;;;;;;9.87;72.38;100629.75;6256210;28;20046;-76
2023/03/17 09:51:45;;;;;;;3.47;1.77;;;;;;;10.00;70.41;100622.94;6249473;28;20429;-76
2023/03/17 09:54:48;;;;;;;4.18;2.00;;;;;;;10.01;70.55;100624.63;6251171;28;20049;-76
2023/03/17 09:57:51;;;;;;;3.80;2.03;;;;;;;10.03;71.67;100624.53;6250922;28;20049;-76
2023/03/17 10:00:54;;;;;;;3.75;1.98;;;;;;;10.17;70.91;100622.00;6251332;28;20088;-76
2023/03/17 10:03:56;;;;;;;1.95;1.30;;;;;;;10.27;70.59;100623.28;6250376;28;20357;-76
2023/03/17 10:07:02;;;;;;;2.42;1.67;;;;;;;10.37;70.09;100628.88;6249573;28;20076;-76
2023/03/17 10:10:13;;;;;;;2.17;1.30;;;;;;;10.51;70.75;100621.06;6250400;28;20354;-76
2023/03/17 10:13:28;;;;;;;2.35;0.85;;;;;;;10.63;70.69;100615.16;6251954;28;20045;-76
2023/03/17 10:16:39;;;;;;;4.47;1.60;;;;;;;10.76;66.69;100617.91;6251337;28;20466;-76
2023/03/17 10:19:44;;;;;;;3.58;1.48;;;;;;;10.78;68.12;100623.09;6255548;28;20056;-76
2023/03/17 10:22:48;;;;;;;3.58;1.58;;;;;;;11.04;66.93;100609.34;6257700;28;20048;-76
2023/03/17 10:25:49;;;;;;;4.68;1.25;;;;;;;11.11;65.25;100604.56;6255883;28;20457;-75
2023/03/17 10:28:53;;;;;;;2.08;1.30;;;;;;;11.20;65.52;100598.75;6250317;28;20053;-76
2023/03/17 10:31:56;;;;;;;3.08;1.58;;;;;;;11.25;66.10;100607.22;6256102;28;20045;-76
2023/03/17 10:34:57;;;;;;;1.90;1.10;;;;;;;11.33;65.19;100597.13;6250128;28;20045;-76
2023/03/17 10:37:59;;;;;;;2.40;1.20;;;;;;;11.56;66.15;100595.75;6251481;28;20440;-76
2023/03/17 10:41:06;;;;;;;2.50;1.38;;;;;;;11.77;64.37;100611.19;6259306;28;20430;-76
2023/03/17 10:44:10;;;;;;;3.00;1.27;;;;;;;11.90;60.47;100596.38;6256308;28;20449;-76
2023/03/17 10:47:34;;;;;;;3.50;1.48;;;;;;;12.14;57.76;100588.75;6259514;28;20136;-76
2023/03/17 10:50:38;;;;;;;2.15;1.42;;;;;;;12.32;59.32;100582.31;6256536;28;20056;-76
2023/03/17 10:53:42;;;;;;;2.22;1.33;;;;;;;12.40;56.23;100581.84;6249959;28;20127;-76
2023/03/17 10:56:48;;;;;;;3.65;1.38;;;;;;;12.46;59.85;100585.88;6250104;28;20091;-75
2023/03/17 10:59:52;;;;;;;4.43;1.27;;;;;;;12.59;58.63;100584.16;6250117;28;20056;-75
2023/03/17 11:02:57;;;;;;;1.58;1.10;;;;;;;12.72;59.75;100584.19;6252335;28;20049;-76
2023/03/17 11:06:02;;;;;;;2.33;1.10;;;;;;;12.84;56.30;100588.66;6250056;28;20038;-76
2023/03/17 11:09:09;;;;;;;3.20;1.40;;;;;;;12.76;55.44;100591.78;6250219;28;20045;-75
2023/03/17 11:12:24;;;;;;;4.05;1.77;;;;;;;12.80;54.61;100592.44;6250084;28;20050;-76
2023/03/17 11:15:32;;;;;;;4.38;1.33;;;;;;;12.80;53.44;100584.53;6257569;28;20143;-76
2023/03/17 11:18:37;;;;;;;3.38;1.40;;;;;;;12.74;54.43;100577.03;6258228;28;20055;-75
2023/03/17 11:21:53;;;;;;;3.45;1.38;;;;;;;12.91;56.37;100579.41;6249992;28;20060;-76
2023/03/17 11:25:05;;;;;;;3.65;1.50;;;;;;;12.93;55.04;100574.88;6252634;28;20052;-76
2023/03/17 11:28:19;;;;;;;1.77;1.05;;;;;;;13.06;56.16;100586.31;6257511;28;20046;-75
2023/03/17 11:31:30;;;;;;;2.83;1.55;;;;;;;13.12;54.99;100585.88;6254564;28;20390;-75
2023/03/17 11:34:50;;;;;;;3.03;1.52;;;;;;;13.28;53.81;100583.13;6249656;28;20127;-76
2023/03/17 11:38:08;;;;;;;2.17;1.20;;;;;;;13.43;53.26;100576.78;6257346;28;20346;-75
2023/03/17 11:41:31;;;;;;;2.20;1.40;;;;;;;13.45;55.53;100582.00;6259020;28;20441;-76
2023/03/17 11:44:55;;;;;;;2.53;1.25;;;;;;;13.46;57.67;100578.41;6261412;28;20361;-75
2023/03/17 11:48:13;;;;;;;2.85;1.70;;;;;;;13.50;55.38;100579.03;6257091;28;20122;-76
2023/03/17 11:51:26;;;;;;;2.95;1.45;;;;;;;13.69;56.75;100575.00;6263196;28;20069;-76
2023/03/17 11:54:40;;;;;;;4.20;1.52;;;;;;;13.77;55.90;100577.13;6253981;28;20056;-76
2023/03/17 11:57:47;;;;;;;3.42;1.65;;;;;;;14.00;54.11;100564.13;6259730;28;20053;-75
2023/03/17 12:00:53;;;;;;;4.10;1.67;;;;;;;14.25;52.69;100563.19;6253809;28;20544;-75
2023/03/17 12:04:07;;;;;;;2.65;1.25;;;;;;;14.49;53.11;100564.13;6258591;28;20052;-75
2023/03/17 12:07:19;;;;;;;3.40;1.67;;;;;;;14.75;55.69;100559.56;6253191;28;20350;-76
2023/03/17 12:10:24;;;;;;;2.22;1.35;;;;;;;14.91;53.13;100559.28;6262461;28;20053;-76
2023/03/17 12:13:34;;;;;;;2.92;1.70;;;;;;;14.95;51.77;100551.00;6264017;28;20071;-76
2023/03/17 12:16:40;;;;;;;2.78;1.52;;;;;;;14.94;52.91;100554.59;6264889;28;20453;-75
2023/03/17 12:19:49;;;;;;;2.38;1.30;;;;;;;15.14;53.48;100547.81;6261547;28;20049;-75
2023/03/17 12:22:57;;;;;;;2.58;1.40;;;;;;;15.16;51.50;100547.69;6261312;28;20041;-75
2023/03/17 12:26:04;;;;;;;5.05;1.30;;;;;;;15.22;52.31;100548.06;6260928;28;20052;-76
2023/03/17 12:29:13;;;;;;;2.20;1.42;;;;;;;15.30;51.88;100549.28;6255559;28;20041;-76
2023/03/17 12:32:19;;;;;;;4.40;1.60;;;;;;;15.20;51.63;100547.34;6260497;28;20050;-76
2023/03/17 12:35:27;;;;;;;2.67;1.48;;;;;;;15.20;53.31;100555.28;6261634;28;20045;-76
2023/03/17 12:38:37;;;;;;;5.03;1.70;;;;;;;15.23;53.94;100555.06;6261488;28;20053;-76
2023/03/17 12:42:00;;;;;;;2.65;1.35;;;;;;;15.28;53.73;100548.56;6264660;28;20055;-76
2023/03/17 12:45:26;;;;;;;1.88;1.23;;;;;;;15.37;51.25;100545.22;6253123;28;20045;-76
2023/03/17 12:48:50;;;;;;;1.90;1.35;;;;;;;15.45;52.56;100541.03;6252811;28;20046;-76
2023/03/17 12:52:03;;;;;;;2.97;1.25;;;;;;;15.56;51.42;100539.34;6252909;28;20049;-76
2023/03/17 12:55:13;;;;;;;2.53;1.42;;;;;;;15.51;51.23;100538.84;6252727;28;20049;-75
2023/03/17 12:58:26;;;;;;;4.32;1.40;;;;;;;15.40;50.81;100543.19;6256573;28;20052;-76
2023/03/17 13:01:39;;;;;;;2.67;1.35;;;;;;;15.42;51.99;100541.25;6250986;28;20049;-76
2023/03/17 13:04:49;;;;;;;6.20;1.73;;;;;;;15.52;52.04;100533.44;6251831;28;20060;-76
2023/03/17 13:07:54;;;;;;;1.92;1.27;;;;;;;15.54;52.82;100534.16;6253834;28;20060;-77
2023/03/17 13:11:17;;;;;;;2.67;1.00;;;;;;;15.41;52.87;100531.63;6252563;28;20041;-77
2023/03/17 13:14:25;;;;;;;3.78;1.58;;;;;;;15.39;53.55;100522.94;6251360;28;20049;-77
2023/03/17 13:17:31;;;;;;;4.35;1.55;;;;;;;15.55;55.56;100519.13;6251393;28;20054;-77
2023/03/17 13:20:37;;;;;;;3.03;1.30;;;;;;;15.59;53.22;100521.41;6250460;28;20050;-77
2023/03/17 13:23:43;;;;;;;5.88;2.28;;;;;;;15.62;51.32;100529.09;6252485;28;20049;-77
2023/03/17 13:26:58;;;;;;;3.13;1.58;;;;;;;15.65;51.61;100526.25;6252443;28;20049;-74
2023/03/17 13:30:38;;;;;;;3.97;1.73;;;;;;;15.66;54.50;100522.63;6252624;28;20128;-74
2023/03/17 13:33:49;;;;;;;3.40;1.70;;;;;;;15.66;54.67;100517.34;6253357;28;20096;-74
2023/03/17 13:37:01;;;;;;;3.20;1.98;;;;;;;15.82;53.06;100513.50;6256084;28;20063;-74
2023/03/17 13:40:17;;;;;;;2.70;1.50;;;;;;;15.90;54.21;100513.75;6252714;28;20049;-75
2023/03/17 13:43:48;;;;;;;3.22;1.20;;;;;;;15.87;54.76;100514.81;6257976;28;20045;-74
2023/03/17 13:46:50;;;;;;;4.43;1.60;;;;;;;15.94;53.04;100516.03;6253177;28;20071;-74
2023/03/17 13:49:57;;;;;;;2.88;1.40;;;;;;;15.96;53.54;100505.28;6251900;28;20048;-74
2023/03/17 13:53:04;;;;;;;2.58;1.27;;;;;;;16.03;52.07;100503.81;6260325;28;20045;-74
2023/03/17 13:56:17;;;;;;;3.75;1.50;;;;;;;16.10;53.59;100507.69;6257619;28;20061;-74
2023/03/17 13:59:20;;;;;;;3.03;1.35;;;;;;;16.03;51.83;100509.13;6256860;28;20048;-74
2023/03/17 14:02:26;;;;;;;3.60;1.38;;;;;;;15.90;51.47;100501.34;6261585;28;20040;-74
2023/03/17 14:05:31;;;;;;;5.97;1.70;;;;;;;15.85;53.57;100498.22;6253219;28;20141;-75
2023/03/17 14:08:35;;;;;;;3.35;1.80;;;;;;;15.82;55.09;100492.31;6257780;28;20476;-74
2023/03/17 14:11:39;;;;;;;5.00;2.03;;;;;;;15.83;55.90;100492.16;6250443;28;20053;-74
2023/03/17 14:14:47;;;;;;;5.60;2.30;;;;;;;15.74;53.70;100487.59;6252301;28;20053;-73
2023/03/17 14:17:53;;;;;;;5.75;2.40;;;;;;;15.69;55.21;100487.13;6256205;28;20057;-74
2023/03/17 14:20:58;;;;;;;4.15;1.70;;;;;;;15.67;54.86;100478.47;6250785;28;20127;-74
2023/03/17 14:24:02;;;;;;;4.85;2.17;;;;;;;15.71;55.10;100485.19;6250595;28;20037;-74
2023/03/17 14:27:07;;;;;;;5.85;2.22;;;;;;;15.70;55.38;100484.34;6258622;28;20055;-74